Terminal Aerodrome Forecast
Issued by NWS

Home | Current Version | Previous Version | Text Only | Print | Product List | Glossary On
Versions: 1 2 3 4 5 6 7 8 9 10 11 12 13 14 15 16
524
FTUS43 KICT 161130
TAFRSL
TAF
KRSL 161130Z 1612/1712 02013KT 5SM -FZRA BR OVC003
      TEMPO 1612/1614 2SM -FZRA BR OVC005
     FM161900 35014KT P6SM OVC006
     FM162300 33015KT P6SM OVC008
     FM170600 32010KT P6SM OVC012=

USA.gov is the U.S. government's official web portal to all federal, state and local government web resources and services.